Huvudsida
METAR-TAF:

METAR-TAF

Flygplatser :

Seinäjoki-Ilmola, Finland

Seinäjoki flygplats

latitud: 62-41-37N, longitud: 022-49-55E, höjd: 91 m

Aktuellt väderrapport

Denna rapport gjordes för 36 minuter sedan, klockan 10:20 UTC
Vind 6 kt från ost
Temperatur -10°C
Fuktighet 85%
Tryck 1000 hPa
Sikt: 7000 m
Få moln på en höjd av 900 ft
Brutna moln på en höjd av 1400 ft
Brutna moln på en höjd av 2000 ft
lätt snö

METAR: EFSI 171020Z AUTO 10006KT 7000 -SN FEW009 BKN014 BKN020 M10/M12 Q1000

Tid: 12:56 (10:56 UTC)


TAF: saknas

Aktuella väderrapporter och prognoser från 4000 flygplatser (METAR- och TAF-rapporter).

De tillgängliga stationerna syns som gula och röda prickar på kartan.

För musen över prickarna för att se namnen på stationerna.

Klicka sedan för att få väderrapporter och prognoser.

För att ändra kartan: Klicka på de gröna knapparna med ett svart kors på för att zooma in; den gröna knappen med ett streck på för att zooma ut; eller på de gröna pilarna för angränsande kartor.


METAR-TAF: